DLH8AC EDDF-EDDS
Flight info
| Callsign | DLH8AC |
|---|---|
| Flight time | 0h 25m |
| Altitude | 16000 |
| Route | ANEKI2L/18 ANEKI Y163 NEKLO Y171 INKAM N850 KRH T128 BADSO BADSO2A |
| Aircraft | A320/M-SDE3FGHIRWY/LB1 |
Departure
| Time | 2026-04-18 09:48 |
|---|---|
| Airport | Frankfurt Main Airport (EDDF) |
Arrival
| Time | 2026-04-18 10:14 |
|---|---|
| Airport | Stuttgart Airport (EDDS) |
| Time | Latitude | Longitude | Altitude | Speed | Heading |
|---|---|---|---|---|---|
| 2026-04-18 09:05 | 50.04736 | 8.56738 | 345 ft | 0 kts | 114° |
| 2026-04-18 09:30 | 50.04739 | 8.56729 | 345 ft | 4 kts | 114° |
| 2026-04-18 09:31 | 50.04750 | 8.56691 | 353 ft | 3 kts | 115° |
| 2026-04-18 09:31 | 50.04762 | 8.56666 | 355 ft | 4 kts | 180° |
| 2026-04-18 09:31 | 50.04781 | 8.56673 | 356 ft | 3 kts | 204° |
| 2026-04-18 09:31 | 50.04797 | 8.56684 | 354 ft | 0 kts | 204° |
| 2026-04-18 09:36 | 50.04794 | 8.56682 | 353 ft | 3 kts | 204° |
| 2026-04-18 09:36 | 50.04744 | 8.56632 | 351 ft | 10 kts | 230° |
| 2026-04-18 09:37 | 50.04703 | 8.56554 | 351 ft | 9 kts | 226° |
| 2026-04-18 09:37 | 50.04654 | 8.56512 | 348 ft | 9 kts | 205° |
| 2026-04-18 09:37 | 50.04588 | 8.56465 | 349 ft | 10 kts | 204° |
| 2026-04-18 09:37 | 50.04530 | 8.56421 | 346 ft | 9 kts | 215° |
| 2026-04-18 09:38 | 50.04506 | 8.56340 | 348 ft | 11 kts | 250° |
| 2026-04-18 09:38 | 50.04473 | 8.56201 | 348 ft | 14 kts | 250° |
| 2026-04-18 09:38 | 50.04441 | 8.56072 | 354 ft | 12 kts | 243° |
| 2026-04-18 09:38 | 50.04379 | 8.56038 | 355 ft | 10 kts | 161° |
| 2026-04-18 09:39 | 50.04320 | 8.56069 | 345 ft | 8 kts | 161° |
| 2026-04-18 09:39 | 50.04250 | 8.55987 | 355 ft | 20 kts | 251° |
| 2026-04-18 09:39 | 50.04200 | 8.55774 | 345 ft | 22 kts | 248° |
| 2026-04-18 09:39 | 50.04144 | 8.55549 | 353 ft | 23 kts | 250° |
| 2026-04-18 09:40 | 50.04092 | 8.55322 | 354 ft | 21 kts | 249° |
| 2026-04-18 09:40 | 50.04039 | 8.55101 | 348 ft | 22 kts | 250° |
| 2026-04-18 09:40 | 50.03990 | 8.54894 | 349 ft | 20 kts | 249° |
| 2026-04-18 09:40 | 50.03941 | 8.54691 | 351 ft | 20 kts | 249° |
| 2026-04-18 09:41 | 50.03892 | 8.54489 | 352 ft | 17 kts | 250° |
| 2026-04-18 09:41 | 50.03845 | 8.54336 | 351 ft | 12 kts | 233° |
| 2026-04-18 09:41 | 50.03804 | 8.54234 | 351 ft | 10 kts | 244° |
| 2026-04-18 09:41 | 50.03780 | 8.54137 | 345 ft | 9 kts | 249° |
| 2026-04-18 09:42 | 50.03757 | 8.54042 | 352 ft | 9 kts | 249° |
| 2026-04-18 09:42 | 50.03737 | 8.53960 | 345 ft | 8 kts | 249° |
| 2026-04-18 09:42 | 50.03720 | 8.53889 | 354 ft | 6 kts | 249° |
| 2026-04-18 09:42 | 50.03704 | 8.53822 | 351 ft | 9 kts | 250° |
| 2026-04-18 09:43 | 50.03674 | 8.53693 | 353 ft | 17 kts | 249° |
| 2026-04-18 09:43 | 50.03625 | 8.53497 | 348 ft | 21 kts | 249° |
| 2026-04-18 09:43 | 50.03573 | 8.53280 | 353 ft | 21 kts | 250° |
| 2026-04-18 09:43 | 50.03522 | 8.53071 | 347 ft | 21 kts | 249° |
| 2026-04-18 09:44 | 50.03468 | 8.52854 | 353 ft | 22 kts | 247° |
| 2026-04-18 09:44 | 50.03431 | 8.52719 | 354 ft | 2 kts | 248° |
| 2026-04-18 09:44 | 50.03431 | 8.52718 | 354 ft | 0 kts | 248° |
| 2026-04-18 09:46 | 50.03429 | 8.52710 | 355 ft | 5 kts | 248° |
| 2026-04-18 09:46 | 50.03399 | 8.52608 | 352 ft | 11 kts | 233° |
| 2026-04-18 09:46 | 50.03362 | 8.52594 | 347 ft | 0 kts | 179° |
| 2026-04-18 09:47 | 50.03355 | 8.52594 | 345 ft | 7 kts | 179° |
| 2026-04-18 09:48 | 50.03086 | 8.52594 | 346 ft | 76 kts | 179° |
| 2026-04-18 09:48 | 50.02339 | 8.52601 | 346 ft | 136 kts | 180° |
| 2026-04-18 09:48 | 50.01235 | 8.52616 | 425 ft | 174 kts | 178° |
| 2026-04-18 09:48 | 50.00000 | 8.52633 | 1032 ft | 181 kts | 179° |
| 2026-04-18 09:49 | 49.98716 | 8.52690 | 1667 ft | 191 kts | 179° |
| 2026-04-18 09:49 | 49.97312 | 8.52788 | 1982 ft | 213 kts | 178° |
| 2026-04-18 09:49 | 49.95739 | 8.52908 | 2416 ft | 233 kts | 178° |
| 2026-04-18 09:49 | 49.94122 | 8.53028 | 3352 ft | 233 kts | 179° |
| 2026-04-18 09:50 | 49.92501 | 8.53145 | 4267 ft | 233 kts | 179° |
| 2026-04-18 09:50 | 49.90876 | 8.53258 | 5186 ft | 234 kts | 179° |
| 2026-04-18 09:50 | 49.89249 | 8.53369 | 6109 ft | 234 kts | 179° |
| 2026-04-18 09:50 | 49.87621 | 8.53479 | 6993 ft | 235 kts | 179° |
| 2026-04-18 09:51 | 49.85970 | 8.53592 | 7791 ft | 239 kts | 179° |
| 2026-04-18 09:51 | 49.84311 | 8.53708 | 8570 ft | 243 kts | 179° |
| 2026-04-18 09:51 | 49.82587 | 8.53829 | 9389 ft | 247 kts | 179° |
| 2026-04-18 09:51 | 49.80878 | 8.53949 | 10174 ft | 251 kts | 179° |
| 2026-04-18 09:52 | 49.79091 | 8.54076 | 10906 ft | 256 kts | 179° |
| 2026-04-18 09:52 | 49.77317 | 8.54043 | 11529 ft | 265 kts | 187° |
| 2026-04-18 09:52 | 49.75403 | 8.53790 | 11817 ft | 288 kts | 187° |
| 2026-04-18 09:52 | 49.73325 | 8.53502 | 12052 ft | 312 kts | 187° |
| 2026-04-18 09:53 | 49.71080 | 8.53191 | 12271 ft | 335 kts | 187° |
| 2026-04-18 09:53 | 49.68677 | 8.52864 | 12478 ft | 356 kts | 187° |
| 2026-04-18 09:53 | 49.66173 | 8.52532 | 13034 ft | 365 kts | 187° |
| 2026-04-18 09:53 | 49.63621 | 8.52198 | 13688 ft | 371 kts | 187° |
| 2026-04-18 09:54 | 49.61031 | 8.51861 | 14318 ft | 376 kts | 188° |
| 2026-04-18 09:54 | 49.58415 | 8.51521 | 14948 ft | 379 kts | 188° |
| 2026-04-18 09:54 | 49.55770 | 8.51175 | 15570 ft | 383 kts | 188° |
| 2026-04-18 09:54 | 49.53104 | 8.50823 | 16036 ft | 386 kts | 188° |
| 2026-04-18 09:55 | 49.50422 | 8.50472 | 16166 ft | 387 kts | 188° |
| 2026-04-18 09:55 | 49.47744 | 8.50126 | 16192 ft | 386 kts | 188° |
| 2026-04-18 09:55 | 49.45065 | 8.49776 | 16193 ft | 386 kts | 188° |
| 2026-04-18 09:55 | 49.42387 | 8.49427 | 16184 ft | 386 kts | 188° |
| 2026-04-18 09:56 | 49.39704 | 8.49077 | 16192 ft | 387 kts | 188° |
| 2026-04-18 09:56 | 49.37020 | 8.48725 | 16191 ft | 387 kts | 188° |
| 2026-04-18 09:56 | 49.34336 | 8.48371 | 16191 ft | 387 kts | 188° |
| 2026-04-18 09:56 | 49.31637 | 8.48214 | 16190 ft | 390 kts | 180° |
| 2026-04-18 09:57 | 49.28942 | 8.48782 | 16191 ft | 394 kts | 169° |
| 2026-04-18 09:57 | 49.26336 | 8.50113 | 16187 ft | 397 kts | 158° |
| 2026-04-18 09:57 | 49.23911 | 8.52161 | 16185 ft | 400 kts | 149° |
| 2026-04-18 09:57 | 49.21562 | 8.54440 | 16182 ft | 400 kts | 149° |
| 2026-04-18 09:58 | 49.19213 | 8.56712 | 16182 ft | 400 kts | 150° |
| 2026-04-18 09:58 | 49.16758 | 8.58670 | 16190 ft | 397 kts | 161° |
| 2026-04-18 09:58 | 49.14118 | 8.59829 | 16189 ft | 393 kts | 173° |
| 2026-04-18 09:58 | 49.11433 | 8.60627 | 16186 ft | 396 kts | 164° |
| 2026-04-18 09:59 | 49.08952 | 8.62479 | 16187 ft | 399 kts | 152° |
| 2026-04-18 09:59 | 49.06556 | 8.64623 | 16187 ft | 400 kts | 151° |
| 2026-04-18 09:59 | 49.04167 | 8.66796 | 16188 ft | 400 kts | 151° |
| 2026-04-18 10:00 | 48.99362 | 8.71059 | 16185 ft | 399 kts | 152° |
| 2026-04-18 10:00 | 48.96941 | 8.73132 | 16177 ft | 399 kts | 153° |
| 2026-04-18 10:00 | 48.94514 | 8.75184 | 16188 ft | 399 kts | 153° |
| 2026-04-18 10:00 | 48.92083 | 8.77225 | 16185 ft | 398 kts | 153° |
| 2026-04-18 10:01 | 48.89708 | 8.79216 | 16181 ft | 382 kts | 153° |
| 2026-04-18 10:01 | 48.87433 | 8.81124 | 16177 ft | 366 kts | 153° |
| 2026-04-18 10:01 | 48.85246 | 8.82958 | 16128 ft | 351 kts | 153° |
| 2026-04-18 10:01 | 48.83162 | 8.84710 | 15842 ft | 336 kts | 153° |
| 2026-04-18 10:02 | 48.81136 | 8.86411 | 15325 ft | 330 kts | 153° |
| 2026-04-18 10:02 | 48.79139 | 8.88085 | 14773 ft | 326 kts | 153° |
| 2026-04-18 10:02 | 48.77164 | 8.89741 | 14207 ft | 323 kts | 153° |
| 2026-04-18 10:02 | 48.75205 | 8.91382 | 13622 ft | 320 kts | 153° |
| 2026-04-18 10:03 | 48.73300 | 8.92985 | 13371 ft | 304 kts | 153° |
| 2026-04-18 10:03 | 48.71525 | 8.94478 | 13237 ft | 287 kts | 153° |
| 2026-04-18 10:03 | 48.69819 | 8.95906 | 13014 ft | 275 kts | 153° |
| 2026-04-18 10:03 | 48.68159 | 8.97293 | 12625 ft | 270 kts | 153° |
| 2026-04-18 10:04 | 48.66524 | 8.98660 | 12215 ft | 267 kts | 153° |
| 2026-04-18 10:04 | 48.64907 | 9.00007 | 11768 ft | 264 kts | 154° |
| 2026-04-18 10:04 | 48.63198 | 9.00843 | 11357 ft | 256 kts | 179° |
| 2026-04-18 10:04 | 48.61474 | 9.00520 | 10926 ft | 248 kts | 204° |
| 2026-04-18 10:05 | 48.60042 | 8.99179 | 10473 ft | 241 kts | 227° |
| 2026-04-18 10:05 | 48.59116 | 8.97111 | 10000 ft | 237 kts | 250° |
| 2026-04-18 10:05 | 48.58822 | 8.94694 | 9473 ft | 235 kts | 273° |
| 2026-04-18 10:05 | 48.59184 | 8.92308 | 8941 ft | 234 kts | 296° |
| 2026-04-18 10:06 | 48.60132 | 8.90338 | 8415 ft | 234 kts | 318° |
| 2026-04-18 10:06 | 48.61468 | 8.88945 | 7886 ft | 234 kts | 328° |
| 2026-04-18 10:06 | 48.62888 | 8.87717 | 7486 ft | 236 kts | 330° |
| 2026-04-18 10:06 | 48.64323 | 8.86535 | 7193 ft | 234 kts | 330° |
| 2026-04-18 10:07 | 48.65753 | 8.85365 | 6876 ft | 233 kts | 330° |
| 2026-04-18 10:07 | 48.67176 | 8.84197 | 6569 ft | 233 kts | 332° |
| 2026-04-18 10:07 | 48.68702 | 8.83418 | 6255 ft | 233 kts | 352° |
| 2026-04-18 10:07 | 48.70308 | 8.83567 | 5955 ft | 233 kts | 15° |
| 2026-04-18 10:08 | 48.71747 | 8.84659 | 5633 ft | 233 kts | 39° |
| 2026-04-18 10:08 | 48.72784 | 8.86516 | 5304 ft | 233 kts | 62° |
| 2026-04-18 10:08 | 48.73257 | 8.88844 | 4989 ft | 233 kts | 86° |
| 2026-04-18 10:08 | 48.73082 | 8.91252 | 4662 ft | 231 kts | 110° |
| 2026-04-18 10:09 | 48.72302 | 8.93346 | 4336 ft | 228 kts | 133° |
| 2026-04-18 10:09 | 48.71042 | 8.94746 | 4089 ft | 224 kts | 163° |
| 2026-04-18 10:09 | 48.69512 | 8.95112 | 4005 ft | 224 kts | 178° |
| 2026-04-18 10:09 | 48.67964 | 8.95221 | 4009 ft | 218 kts | 175° |
| 2026-04-18 10:10 | 48.67008 | 8.95575 | 4005 ft | 211 kts | 157° |
| 2026-04-18 10:10 | 48.65841 | 8.96848 | 4009 ft | 207 kts | 130° |
| 2026-04-18 10:10 | 48.65169 | 8.98753 | 4004 ft | 207 kts | 106° |
| 2026-04-18 10:10 | 48.65004 | 9.00913 | 3854 ft | 210 kts | 84° |
| 2026-04-18 10:11 | 48.65323 | 9.03077 | 3591 ft | 211 kts | 73° |
| 2026-04-18 10:11 | 48.65731 | 9.05166 | 3343 ft | 201 kts | 73° |
| 2026-04-18 10:11 | 48.66115 | 9.07147 | 3085 ft | 189 kts | 74° |
| 2026-04-18 10:11 | 48.66464 | 9.08964 | 2815 ft | 171 kts | 74° |
| 2026-04-18 10:12 | 48.66780 | 9.10612 | 2594 ft | 156 kts | 74° |
| 2026-04-18 10:12 | 48.67074 | 9.12152 | 2398 ft | 150 kts | 74° |
| 2026-04-18 10:12 | 48.67361 | 9.13652 | 2205 ft | 147 kts | 74° |
| 2026-04-18 10:12 | 48.67642 | 9.15125 | 2012 ft | 145 kts | 74° |
| 2026-04-18 10:13 | 48.67918 | 9.16587 | 1822 ft | 144 kts | 74° |
| 2026-04-18 10:13 | 48.68194 | 9.18045 | 1637 ft | 144 kts | 73° |
| 2026-04-18 10:13 | 48.68477 | 9.19494 | 1441 ft | 143 kts | 74° |
| 2026-04-18 10:13 | 48.68750 | 9.20939 | 1292 ft | 140 kts | 75° |
| 2026-04-18 10:14 | 48.68986 | 9.22186 | 1287 ft | 102 kts | 74° |
| 2026-04-18 10:14 | 48.69127 | 9.22878 | 1287 ft | 27 kts | 52° |
| 2026-04-18 10:14 | 48.69249 | 9.23069 | 1288 ft | 25 kts | 46° |
| 2026-04-18 10:14 | 48.69352 | 9.23153 | 1285 ft | 15 kts | 354° |
| 2026-04-18 10:15 | 48.69408 | 9.23037 | 1286 ft | 15 kts | 263° |
| 2026-04-18 10:15 | 48.69378 | 9.22881 | 1288 ft | 16 kts | 254° |
| 2026-04-18 10:15 | 48.69347 | 9.22714 | 1288 ft | 17 kts | 255° |
| 2026-04-18 10:15 | 48.69314 | 9.22529 | 1285 ft | 19 kts | 255° |
| 2026-04-18 10:16 | 48.69275 | 9.22330 | 1287 ft | 21 kts | 253° |
| 2026-04-18 10:16 | 48.69224 | 9.22073 | 1285 ft | 41 kts | 253° |
| 2026-04-18 10:16 | 48.69117 | 9.21509 | 1287 ft | 45 kts | 255° |
| 2026-04-18 10:16 | 48.69056 | 9.21182 | 1285 ft | 26 kts | 254° |
| 2026-04-18 10:17 | 48.69008 | 9.20933 | 1285 ft | 24 kts | 254° |
| 2026-04-18 10:17 | 48.68966 | 9.20711 | 1286 ft | 21 kts | 254° |
| 2026-04-18 10:17 | 48.68924 | 9.20485 | 1285 ft | 23 kts | 254° |
| 2026-04-18 10:17 | 48.68877 | 9.20244 | 1285 ft | 25 kts | 253° |
| 2026-04-18 10:18 | 48.68825 | 9.19997 | 1285 ft | 23 kts | 239° |
| 2026-04-18 10:18 | 48.68745 | 9.19785 | 1289 ft | 24 kts | 253° |
| 2026-04-18 10:18 | 48.68699 | 9.19544 | 1287 ft | 22 kts | 253° |
| 2026-04-18 10:18 | 48.68655 | 9.19311 | 1289 ft | 24 kts | 254° |
| 2026-04-18 10:19 | 48.68702 | 9.19155 | 1285 ft | 18 kts | 346° |
| 2026-04-18 10:19 | 48.68776 | 9.19229 | 1289 ft | 13 kts | 72° |
| 2026-04-18 10:19 | 48.68792 | 9.19317 | 1288 ft | 7 kts | 75° |
| 2026-04-18 10:19 | 48.68806 | 9.19379 | 1290 ft | 5 kts | 56° |
| 2026-04-18 10:20 | 48.68834 | 9.19381 | 1287 ft | 4 kts | 346° |
| 2026-04-18 10:20 | 48.68867 | 9.19367 | 1288 ft | 5 kts | 344° |
| 2026-04-18 10:20 | 48.68881 | 9.19361 | 1287 ft | 0 kts | 343° |